Time;durP1;ratioP1;P1;durP2;ratioP2;P2;SDS_P1;SDS_P2;PMS_P1;PMS_P2;Temp;Humidity;BMP_temperature;BMP_pressure;BME280_temperature;BME280_humidity;BME280_pressure;Samples;Min_cycle;Max_cycle;Signal;HPM_P1;HPM_P2
2023/01/29 00:01:33;;;;;;;27.85;12.23;;;;;;;-2.76;96.27;102997.50;5035597;28;20055;-73
2023/01/29 00:03:58;;;;;;;27.63;11.98;;;;;;;-2.77;96.31;102993.97;5050965;28;20503;-72
2023/01/29 00:06:23;;;;;;;32.20;12.45;;;;;;;-2.73;96.50;102994.91;5052567;28;20407;-73
2023/01/29 00:08:49;;;;;;;26.30;12.88;;;;;;;-2.70;97.01;102989.66;5052627;28;20021;-73
2023/01/29 00:11:15;;;;;;;28.63;13.45;;;;;;;-2.67;97.08;102974.59;5037666;28;20046;-73
2023/01/29 00:13:42;;;;;;;35.20;13.73;;;;;;;-2.67;97.31;102974.59;5047801;28;20560;-72
2023/01/29 00:16:08;;;;;;;26.55;12.05;;;;;;;-2.62;97.37;102978.22;5033238;28;20826;-73
2023/01/29 00:18:37;;;;;;;30.20;13.35;;;;;;;-2.60;97.44;102976.50;5032333;28;20029;-72
2023/01/29 00:21:03;;;;;;;30.30;12.40;;;;;;;-2.57;97.29;102971.19;5030307;28;20045;-73
2023/01/29 00:23:28;;;;;;;29.17;13.20;;;;;;;-2.55;97.29;102965.03;5031236;28;20025;-73
2023/01/29 00:25:53;;;;;;;27.88;13.10;;;;;;;-2.51;97.46;102961.53;5032093;28;20045;-73
2023/01/29 00:28:19;;;;;;;30.10;12.70;;;;;;;-2.52;97.55;102954.38;5043864;28;20119;-73
2023/01/29 00:30:44;;;;;;;29.95;13.07;;;;;;;-2.48;97.52;102956.22;5036262;28;20052;-72
2023/01/29 00:33:12;;;;;;;29.20;12.45;;;;;;;-2.44;97.61;102958.97;5037364;28;20043;-73
2023/01/29 00:35:39;;;;;;;24.75;12.25;;;;;;;-2.42;97.41;102951.91;5037551;28;20048;-73
2023/01/29 00:38:04;;;;;;;28.13;12.25;;;;;;;-2.41;97.86;102960.81;5031887;28;20519;-73
2023/01/29 00:44:56;;;;;;;28.05;12.10;;;;;;;-2.40;97.71;102955.47;5031857;28;20014;-73
2023/01/29 00:45:59;;;;;;;28.42;12.88;;;;;;;-2.39;97.70;102943.03;5030288;28;20037;-73
2023/01/29 00:48:24;;;;;;;29.38;13.60;;;;;;;-2.36;97.90;102938.66;5030384;28;20091;-73
2023/01/29 00:50:50;;;;;;;32.40;13.23;;;;;;;-2.37;97.65;102928.88;5031599;28;20496;-75
2023/01/29 00:53:15;;;;;;;26.73;12.07;;;;;;;-2.36;97.51;102933.34;5031480;28;20401;-73
2023/01/29 00:55:41;;;;;;;31.10;12.13;;;;;;;-2.37;97.76;102923.56;5013994;28;20030;-73
2023/01/29 00:58:06;;;;;;;27.92;13.50;;;;;;;-2.34;97.63;102914.69;5041796;28;20044;-73
2023/01/29 01:00:32;;;;;;;27.75;12.57;;;;;;;-2.34;97.45;102910.25;5037414;28;20272;-73
2023/01/29 01:03:06;;;;;;;28.25;12.43;;;;;;;-2.33;97.74;102911.19;5029849;28;20037;-73
2023/01/29 01:05:32;;;;;;;29.95;12.70;;;;;;;-2.35;97.76;102911.13;5029783;28;20512;-73
2023/01/29 01:07:57;;;;;;;28.10;13.05;;;;;;;-2.38;97.47;102926.19;5030366;28;20339;-73
2023/01/29 01:10:31;;;;;;;31.63;12.32;;;;;;;-2.40;97.54;102923.50;5029951;28;20071;-74
2023/01/29 01:12:58;;;;;;;30.98;12.73;;;;;;;-2.43;97.41;102923.44;5040227;28;20041;-73
2023/01/29 01:15:26;;;;;;;24.20;12.27;;;;;;;-2.45;97.09;102924.31;5038274;28;20374;-73
2023/01/29 01:17:55;;;;;;;27.80;12.75;;;;;;;-2.51;97.13;102924.22;5030794;28;20030;-75
2023/01/29 01:20:22;;;;;;;34.08;14.30;;;;;;;-2.51;97.36;102926.91;5029958;28;20099;-73
2023/01/29 01:22:48;;;;;;;34.90;13.60;;;;;;;-2.53;96.81;102917.97;5029765;28;20124;-76
2023/01/29 01:25:14;;;;;;;28.15;11.55;;;;;;;-2.55;96.69;102917.97;5031329;28;20026;-73
2023/01/29 01:27:40;;;;;;;29.52;13.63;;;;;;;-2.58;96.94;102926.78;5039823;28;20029;-74
2023/01/29 01:30:08;;;;;;;31.25;13.75;;;;;;;-2.62;96.82;102913.38;5037645;28;20499;-73
2023/01/29 01:32:33;;;;;;;25.58;11.52;;;;;;;-2.69;97.10;102917.75;5043372;28;20481;-73
2023/01/29 01:34:59;;;;;;;29.00;13.13;;;;;;;-2.61;97.28;102925.88;5031196;28;20044;-74
2023/01/29 01:37:24;;;;;;;33.63;14.02;;;;;;;-2.62;97.02;102913.38;5030780;28;20025;-73
2023/01/29 01:39:49;;;;;;;34.05;13.55;;;;;;;-2.59;97.23;102926.78;5043823;28;20512;-73
2023/01/29 01:42:15;;;;;;;29.60;12.43;;;;;;;-2.56;97.35;102932.16;5044589;28;20041;-73
2023/01/29 01:44:53;;;;;;;32.08;12.82;;;;;;;-2.57;97.49;102925.00;5029332;28;20428;-74
2023/01/29 01:47:25;;;;;;;28.67;11.45;;;;;;;-2.56;97.37;102921.50;5029570;28;20485;-74
2023/01/29 01:49:52;;;;;;;29.38;13.85;;;;;;;-2.57;97.47;102923.25;5012922;28;20049;-73
2023/01/29 01:52:19;;;;;;;30.45;13.57;;;;;;;-2.59;97.44;102921.44;5030796;28;20087;-76
2023/01/29 01:54:44;;;;;;;36.03;15.50;;;;;;;-2.59;97.30;102921.44;5029884;28;20060;-73
2023/01/29 01:57:16;;;;;;;28.48;13.93;;;;;;;-2.54;97.51;102929.50;5029210;28;20036;-74
2023/01/29 01:59:51;;;;;;;31.45;12.98;;;;;;;-2.54;97.59;102927.72;5030828;28;20029;-75
2023/01/29 02:10:40;;;;;;;32.70;14.43;;;;;;;-2.50;98.00;102928.69;5029072;28;20509;-74
2023/01/29 02:13:06;;;;;;;34.13;13.85;;;;;;;-2.50;97.63;102931.34;5028938;28;20048;-73
2023/01/29 02:15:32;;;;;;;35.67;14.93;;;;;;;-2.47;98.23;102934.03;5028930;28;20489;-74
2023/01/29 02:17:58;;;;;;;33.25;12.95;;;;;;;-2.46;98.12;102936.75;5030223;28;20044;-74
2023/01/29 02:20:30;;;;;;;32.13;14.50;;;;;;;-2.44;97.90;102934.97;5041401;28;20108;-74
2023/01/29 02:23:04;;;;;;;34.45;14.65;;;;;;;-2.40;97.80;102934.16;5032190;28;20396;-74
2023/01/29 02:25:41;;;;;;;39.95;15.80;;;;;;;-2.34;97.94;102936.91;5017174;28;20417;-74
2023/01/29 02:28:35;;;;;;;37.47;16.20;;;;;;;-2.29;97.88;102944.06;5040110;28;20056;-74
2023/01/29 02:31:19;;;;;;;31.25;13.80;;;;;;;-2.27;97.87;102939.69;5033756;28;20485;-74
2023/01/29 02:34:00;;;;;;;36.25;14.00;;;;;;;-2.24;97.70;102953.94;5029027;28;20087;-74
2023/01/29 02:36:49;;;;;;;38.60;14.45;;;;;;;-2.20;97.86;102944.22;5029996;28;20119;-74
2023/01/29 02:39:28;;;;;;;34.25;14.88;;;;;;;-2.18;98.15;102938.03;5029175;28;20106;-74
2023/01/29 02:42:05;;;;;;;37.03;14.63;;;;;;;-2.16;97.89;102928.28;5028313;28;20138;-76
2023/01/29 02:44:39;;;;;;;30.88;13.10;;;;;;;-2.13;97.91;102933.66;5028476;28;20030;-74
2023/01/29 02:47:28;;;;;;;37.50;15.77;;;;;;;-2.08;97.66;102929.28;5028882;28;20073;-73
2023/01/29 02:50:11;;;;;;;31.27;13.68;;;;;;;-2.08;97.73;102931.94;5028259;28;20057;-74
2023/01/29 02:52:42;;;;;;;32.35;13.95;;;;;;;-2.02;97.57;102931.13;5028322;28;20400;-73
2023/01/29 02:55:23;;;;;;;35.92;14.20;;;;;;;-1.98;97.56;102932.06;5028485;28;20029;-74
2023/01/29 02:57:54;;;;;;;34.10;15.25;;;;;;;-2.00;97.50;102921.41;5027935;28;20128;-74
2023/01/29 03:00:25;;;;;;;31.75;13.32;;;;;;;-1.93;97.58;102925.03;5028418;28;20052;-73
2023/01/29 03:03:07;;;;;;;34.90;14.27;;;;;;;-1.90;97.48;102927.75;5030048;28;20485;-73
2023/01/29 03:05:42;;;;;;;30.38;13.65;;;;;;;-1.87;97.28;102930.41;5029513;28;20404;-74
2023/01/29 03:08:14;;;;;;;34.10;13.85;;;;;;;-1.85;97.52;102928.69;5027913;28;20048;-73
2023/01/29 03:10:47;;;;;;;36.38;13.43;;;;;;;-1.83;97.43;102925.16;5028282;28;20061;-74
2023/01/29 03:13:33;;;;;;;33.33;14.38;;;;;;;-1.82;97.14;102924.28;5027796;28;20083;-74
2023/01/29 03:16:07;;;;;;;33.75;14.75;;;;;;;-1.78;97.29;102924.31;5027723;28;20128;-74
2023/01/29 03:18:44;;;;;;;35.10;15.15;;;;;;;-1.76;97.33;102918.13;5032504;28;20038;-74
2023/01/29 03:32:50;;;;;;;34.20;14.73;;;;;;;-1.61;97.10;102910.28;5033317;28;20151;-74
2023/01/29 03:35:35;;;;;;;34.75;14.25;;;;;;;-1.57;97.40;102903.22;5032571;28;20040;-74
2023/01/29 03:38:09;;;;;;;29.42;14.43;;;;;;;-1.56;97.43;102910.34;5033744;28;20119;-74
2023/01/29 03:40:44;;;;;;;38.40;15.65;;;;;;;-1.53;97.19;102913.06;5052982;28;20075;-74
2023/01/29 03:43:28;;;;;;;32.42;14.57;;;;;;;-1.55;97.19;102902.34;5023177;28;20040;-74
2023/01/29 03:46:07;;;;;;;33.22;14.07;;;;;;;-1.46;97.03;102908.66;5014773;28;20034;-74
2023/01/29 03:48:35;;;;;;;31.10;13.82;;;;;;;-1.46;96.76;102904.22;5031247;28;20137;-74
2023/01/29 03:51:14;;;;;;;35.85;14.45;;;;;;;-1.43;97.05;102896.25;5031719;28;20505;-74
2023/01/29 03:53:55;;;;;;;29.30;13.63;;;;;;;-1.41;96.97;102888.25;5051562;28;20103;-74
2023/01/29 03:56:42;;;;;;;40.30;15.27;;;;;;;-1.39;96.92;102884.72;5044728;28;20116;-75
2023/01/29 03:59:16;;;;;;;34.22;15.48;;;;;;;-1.37;97.18;102890.06;5031502;28;20063;-75
2023/01/29 04:02:06;;;;;;;39.00;15.77;;;;;;;-1.36;96.93;102883.84;5032901;28;20179;-74
2023/01/29 04:04:37;;;;;;;34.00;14.65;;;;;;;-1.34;97.29;102885.66;5031155;28;20041;-73
2023/01/29 04:07:10;;;;;;;38.80;16.15;;;;;;;-1.32;97.04;102883.00;5022458;28;20044;-74
2023/01/29 04:09:42;;;;;;;32.70;14.77;;;;;;;-1.29;97.12;102883.03;5052642;28;20510;-74
2023/01/29 04:12:12;;;;;;;38.88;16.92;;;;;;;-1.30;96.95;102871.47;5047203;28;20400;-75
2023/01/29 04:14:41;;;;;;;39.17;16.52;;;;;;;-1.27;96.38;102870.59;5031106;28;20022;-74
2023/01/29 04:17:21;;;;;;;33.85;15.27;;;;;;;-1.25;96.81;102868.84;5031148;28;20039;-74
2023/01/29 04:20:10;;;;;;;38.65;15.90;;;;;;;-1.23;96.96;102863.50;5032308;28;20049;-75
2023/01/29 04:22:38;;;;;;;36.00;16.92;;;;;;;-1.19;96.98;102868.88;5014107;28;20449;-74
2023/01/29 04:25:14;;;;;;;37.33;15.48;;;;;;;-1.17;96.74;102874.22;5030914;28;20060;-74
2023/01/29 04:27:51;;;;;;;38.35;15.70;;;;;;;-1.16;96.85;102873.38;5030003;28;20044;-75
2023/01/29 04:30:38;;;;;;;38.30;15.32;;;;;;;-1.13;96.35;102874.25;5039424;28;20033;-75
2023/01/29 04:33:12;;;;;;;34.25;15.45;;;;;;;-1.12;96.83;102878.75;5034168;28;20437;-74
2023/01/29 04:36:16;;;;;;;40.90;16.70;;;;;;;-1.10;96.66;102873.41;5014956;28;20041;-74
2023/01/29 04:38:49;;;;;;;39.40;15.05;;;;;;;-1.09;96.79;102877.88;5021367;28;20037;-74
2023/01/29 04:41:29;;;;;;;38.13;15.02;;;;;;;-1.08;96.61;102867.19;5032123;28;20481;-74
2023/01/29 04:43:59;;;;;;;38.80;15.70;;;;;;;-1.07;96.70;102850.31;5031569;28;20049;-75
2023/01/29 04:46:32;;;;;;;34.20;15.45;;;;;;;-1.07;96.86;102847.63;5031783;28;20565;-75
2023/01/29 04:49:28;;;;;;;39.90;16.70;;;;;;;-1.07;96.81;102844.06;5031666;28;20568;-75
2023/01/29 04:52:05;;;;;;;33.33;14.68;;;;;;;-1.07;96.73;102836.06;5030430;28;20090;-74
2023/01/29 04:55:03;;;;;;;38.17;15.82;;;;;;;-1.04;96.91;102830.72;5030714;28;20025;-75
2023/01/29 04:57:38;;;;;;;38.65;16.38;;;;;;;-1.01;96.98;102827.19;5031433;28;20404;-75
2023/01/29 05:00:07;;;;;;;43.75;17.65;;;;;;;-1.01;96.96;102825.41;5031766;28;20033;-75
2023/01/29 05:02:39;;;;;;;39.10;16.67;;;;;;;-0.99;96.83;102825.41;5031261;28;20560;-74
2023/01/29 05:05:07;;;;;;;39.28;17.33;;;;;;;-0.99;96.74;102830.75;5030202;28;20464;-75
2023/01/29 05:07:35;;;;;;;42.85;16.70;;;;;;;-0.97;96.77;102816.53;5031104;28;20105;-75
2023/01/29 05:10:03;;;;;;;39.35;16.90;;;;;;;-0.98;96.53;102809.41;5031512;28;20029;-76
2023/01/29 05:12:30;;;;;;;37.78;16.55;;;;;;;-0.95;96.68;102828.13;5029610;28;20044;-75
2023/01/29 05:14:59;;;;;;;41.47;17.05;;;;;;;-0.94;96.64;102824.56;5037060;28;20482;-75
2023/01/29 05:17:25;;;;;;;41.53;17.50;;;;;;;-0.91;96.24;102829.03;5033506;28;20044;-75
2023/01/29 05:19:51;;;;;;;42.08;17.27;;;;;;;-0.92;96.58;102809.44;5038449;28;20389;-75
2023/01/29 05:22:21;;;;;;;43.00;18.50;;;;;;;-0.92;96.49;102814.78;5030055;28;20044;-76
2023/01/29 05:24:47;;;;;;;38.65;17.42;;;;;;;-0.87;96.59;102812.16;5031430;28;20033;-75
2023/01/29 05:30:04;;;;;;;41.60;18.48;;;;;;;-0.90;96.77;102799.66;5029648;28;20037;-75
2023/01/29 05:32:30;;;;;;;41.50;18.10;;;;;;;-0.86;96.53;102798.78;5030837;28;20048;-75
2023/01/29 05:34:55;;;;;;;41.20;18.17;;;;;;;-0.83;96.78;102789.91;5031042;28;20025;-76
2023/01/29 05:37:21;;;;;;;48.85;18.58;;;;;;;-0.82;96.81;102797.03;5031013;28;20045;-75
2023/01/29 05:39:46;;;;;;;46.88;19.65;;;;;;;-0.82;96.91;102803.28;5029766;28;20191;-75
2023/01/29 05:42:11;;;;;;;41.97;17.73;;;;;;;-0.81;96.58;102801.50;5029442;28;20040;-75
2023/01/29 05:44:37;;;;;;;43.20;18.55;;;;;;;-0.83;96.73;102795.25;5030631;28;20033;-76
2023/01/29 05:47:02;;;;;;;43.72;19.58;;;;;;;-0.80;97.02;102796.16;5030812;28;20026;-76
2023/01/29 05:49:28;;;;;;;40.17;18.55;;;;;;;-0.76;97.09;102810.44;5030243;28;20045;-75
2023/01/29 05:51:53;;;;;;;45.80;18.60;;;;;;;-0.77;96.93;102809.53;5030198;28;20045;-76
2023/01/29 05:54:19;;;;;;;46.92;21.40;;;;;;;-0.74;97.02;102813.13;5030888;28;20396;-76
2023/01/29 05:56:44;;;;;;;44.58;18.23;;;;;;;-0.73;97.17;102821.16;5029448;28;20026;-76
2023/01/29 05:59:09;;;;;;;42.20;19.17;;;;;;;-0.71;96.93;102818.47;5030246;28;20065;-76
2023/01/29 06:01:35;;;;;;;43.30;19.48;;;;;;;-0.70;96.83;102822.91;5049855;28;20476;-76
2023/01/29 06:04:01;;;;;;;46.30;19.27;;;;;;;-0.70;96.75;102818.50;5049032;28;20032;-76
2023/01/29 06:06:26;;;;;;;46.03;18.52;;;;;;;-0.71;96.54;102816.69;5049107;28;20036;-76
2023/01/29 06:08:51;;;;;;;42.40;19.15;;;;;;;-0.70;96.76;102825.59;5045152;28;20118;-76
2023/01/29 06:11:17;;;;;;;42.25;18.85;;;;;;;-0.66;96.59;102825.63;5029354;28;20033;-76
2023/01/29 06:13:45;;;;;;;45.70;18.83;;;;;;;-0.65;96.34;102827.44;5028514;28;20373;-76
2023/01/29 06:16:12;;;;;;;46.92;20.23;;;;;;;-0.64;96.71;102831.88;5046136;28;20029;-76
2023/01/29 06:18:38;;;;;;;46.03;20.98;;;;;;;-0.66;96.81;102830.97;5048687;28;20207;-75
2023/01/29 06:21:05;;;;;;;46.33;19.15;;;;;;;-0.62;96.85;102837.22;5042733;28;20029;-76
2023/01/29 06:23:31;;;;;;;46.95;21.10;;;;;;;-0.62;96.87;102843.47;5029181;28;20043;-76
2023/01/29 06:26:25;;;;;;;40.83;19.60;;;;;;;-0.59;96.71;102855.97;5039873;28;20396;-76
2023/01/29 06:28:51;;;;;;;43.22;18.65;;;;;;;-0.62;96.97;102838.13;5023115;28;20304;-76
2023/01/29 06:31:17;;;;;;;45.83;20.10;;;;;;;-0.62;96.82;102816.75;5046968;28;20439;-76
2023/01/29 06:33:42;;;;;;;45.80;19.48;;;;;;;-0.57;97.00;102811.41;5031433;28;20091;-76
2023/01/29 06:36:08;;;;;;;49.30;20.73;;;;;;;-0.59;97.20;102797.16;5049770;28;20400;-76
2023/01/29 06:38:34;;;;;;;45.63;19.35;;;;;;;-0.59;96.88;102795.38;5032101;28;20132;-76
2023/01/29 06:41:06;;;;;;;48.20;20.75;;;;;;;-0.58;96.97;102783.81;5049344;28;20086;-76
2023/01/29 06:43:31;;;;;;;50.85;20.58;;;;;;;-0.56;97.01;102797.16;5035287;28;20469;-77
2023/01/29 06:45:57;;;;;;;51.75;20.48;;;;;;;-0.55;96.70;102807.00;5027890;28;20049;-76
2023/01/29 06:48:23;;;;;;;45.70;20.90;;;;;;;-0.55;96.80;102802.53;5029583;28;20045;-76
2023/01/29 06:50:48;;;;;;;45.80;19.92;;;;;;;-0.57;96.91;102796.28;5011612;28;20042;-76
2023/01/29 06:53:15;;;;;;;44.58;21.40;;;;;;;-0.55;96.71;102799.88;5029369;28;20045;-77
2023/01/29 06:55:41;;;;;;;46.85;19.77;;;;;;;-0.52;96.66;102790.94;5049426;28;20033;-76
2023/01/29 06:58:10;;;;;;;51.53;20.88;;;;;;;-0.51;96.64;102784.75;5038840;28;20040;-76
2023/01/29 07:00:35;;;;;;;47.88;22.33;;;;;;;-0.50;96.37;102788.31;5027880;28;20033;-76
2023/01/29 07:03:02;;;;;;;46.20;20.27;;;;;;;-0.48;96.46;102794.53;5030003;28;20041;-76
2023/01/29 07:05:28;;;;;;;51.00;20.98;;;;;;;-0.48;96.79;102787.41;5029556;28;20047;-77
2023/01/29 07:07:53;;;;;;;50.85;22.40;;;;;;;-0.47;96.50;102786.50;5028123;28;20100;-77
2023/01/29 07:10:19;;;;;;;47.03;20.63;;;;;;;-0.47;96.38;102782.94;5029334;28;20045;-76
2023/01/29 07:12:44;;;;;;;49.40;21.63;;;;;;;-0.45;96.21;102791.88;5029265;28;20649;-77
2023/01/29 07:15:11;;;;;;;48.53;19.75;;;;;;;-0.45;96.11;102799.91;5029237;28;20029;-77
2023/01/29 07:17:37;;;;;;;49.95;19.67;;;;;;;-0.44;96.06;102802.59;5029309;28;20018;-77
2023/01/29 07:20:03;;;;;;;44.88;21.05;;;;;;;-0.42;96.32;102799.91;5027872;28;20037;-76
2023/01/29 07:22:28;;;;;;;42.72;18.40;;;;;;;-0.41;96.05;102794.59;5028050;28;20026;-77
2023/01/29 07:24:54;;;;;;;45.92;19.25;;;;;;;-0.41;95.91;102799.94;5042241;28;20033;-77
2023/01/29 07:27:19;;;;;;;41.35;20.00;;;;;;;-0.40;96.01;102795.47;5043552;28;20037;-77
2023/01/29 07:29:44;;;;;;;41.60;18.42;;;;;;;-0.38;96.13;102813.28;5029056;28;20040;-77
2023/01/29 07:32:10;;;;;;;44.47;20.13;;;;;;;-0.40;95.80;102809.72;5027921;28;20051;-77
2023/01/29 07:34:35;;;;;;;44.03;18.23;;;;;;;-0.37;95.87;102796.38;5027874;28;20488;-77
2023/01/29 07:37:00;;;;;;;48.97;21.33;;;;;;;-0.36;95.96;102790.16;5029166;28;20441;-77
2023/01/29 07:39:26;;;;;;;49.90;22.20;;;;;;;-0.35;96.05;102788.38;5028703;28;20095;-78
2023/01/29 07:41:51;;;;;;;45.08;19.23;;;;;;;-0.36;96.00;102781.25;5029109;28;20060;-77
2023/01/29 07:44:16;;;;;;;48.65;19.92;;;;;;;-0.36;96.15;102781.25;5028765;28;20084;-77
2023/01/29 07:46:42;;;;;;;44.83;20.17;;;;;;;-0.35;96.13;102783.91;5029300;28;20448;-77
2023/01/29 07:49:07;;;;;;;45.95;20.17;;;;;;;-0.34;96.14;102791.03;5027675;28;20133;-78
2023/01/29 07:51:32;;;;;;;42.05;20.20;;;;;;;-0.31;96.09;102800.88;5011288;28;20037;-77
2023/01/29 07:53:58;;;;;;;49.10;20.05;;;;;;;-0.30;96.16;102802.66;5027072;28;20120;-77
2023/01/29 07:56:23;;;;;;;44.38;19.08;;;;;;;-0.30;96.27;102799.97;5027897;28;20037;-76
2023/01/29 07:58:49;;;;;;;47.72;21.13;;;;;;;-0.30;95.84;102792.84;5042892;28;20056;-77
2023/01/29 08:01:14;;;;;;;46.63;19.98;;;;;;;-0.26;96.26;102788.41;5030740;28;20095;-77
2023/01/29 08:03:39;;;;;;;47.58;19.00;;;;;;;-0.27;96.02;102782.16;5031380;28;20043;-77
2023/01/29 08:06:05;;;;;;;40.67;19.75;;;;;;;-0.28;95.90;102772.34;5032516;28;20508;-77
2023/01/29 08:08:30;;;;;;;44.47;20.60;;;;;;;-0.21;95.86;102786.63;5031513;28;20033;-77
2023/01/29 08:10:56;;;;;;;46.67;21.13;;;;;;;-0.21;95.76;102791.97;5032644;28;20447;-77
2023/01/29 08:13:21;;;;;;;44.58;20.02;;;;;;;-0.20;95.80;102780.38;5032102;28;20128;-77
2023/01/29 08:15:46;;;;;;;46.13;20.67;;;;;;;-0.18;95.92;102778.63;5031460;28;20087;-78
2023/01/29 08:18:13;;;;;;;53.88;20.95;;;;;;;-0.15;95.56;102785.75;5032503;28;20079;-78
2023/01/29 08:20:38;;;;;;;46.10;19.88;;;;;;;-0.14;95.61;102785.78;5032119;28;20041;-78
2023/01/29 08:23:09;;;;;;;45.05;18.15;;;;;;;-0.14;95.37;102777.75;5046839;28;20037;-78
2023/01/29 08:25:35;;;;;;;45.28;20.52;;;;;;;-0.14;95.20;102775.09;5040614;28;20029;-80
2023/01/29 08:28:00;;;;;;;43.78;18.90;;;;;;;-0.11;95.10;102775.06;5060610;28;20088;-78
2023/01/29 08:30:28;;;;;;;42.30;19.25;;;;;;;-0.10;95.33;102770.59;5063137;28;20021;-78
2023/01/29 08:32:54;;;;;;;48.72;20.63;;;;;;;-0.08;95.21;102771.53;5056345;28;20037;-78
2023/01/29 08:35:19;;;;;;;41.30;18.83;;;;;;;-0.09;94.84;102765.28;5056172;28;20049;-79
2023/01/29 08:37:52;;;;;;;45.38;20.50;;;;;;;-0.06;95.19;102762.59;5055553;28;20036;-79
2023/01/29 08:40:17;;;;;;;40.80;18.88;;;;;;;-0.08;95.48;102747.44;5056681;28;20052;-79
2023/01/29 08:42:43;;;;;;;44.30;20.13;;;;;;;-0.04;95.08;102746.56;5068561;28;20012;-79
2023/01/29 08:45:08;;;;;;;41.67;18.52;;;;;;;-0.02;95.18;102739.41;5050095;28;20018;-79
2023/01/29 08:47:34;;;;;;;43.63;18.90;;;;;;;-0.01;95.21;102736.75;5056048;28;20103;-80
2023/01/29 08:49:59;;;;;;;42.17;19.92;;;;;;;0.02;95.27;102732.31;5054958;28;20065;-78
2023/01/29 08:52:24;;;;;;;43.97;20.15;;;;;;;0.05;94.95;102742.97;5051364;28;20042;-79
2023/01/29 08:54:50;;;;;;;44.03;19.63;;;;;;;0.07;94.84;102736.75;5038323;28;20048;-78
2023/01/29 08:57:15;;;;;;;46.17;19.58;;;;;;;0.11;95.20;102741.22;5031959;28;20608;-79
2023/01/29 08:59:40;;;;;;;46.25;18.67;;;;;;;0.17;95.08;102751.03;5032010;28;20036;-79
2023/01/29 09:02:06;;;;;;;41.70;19.83;;;;;;;0.20;94.70;102743.03;5031751;28;20037;-81
2023/01/29 09:04:31;;;;;;;42.00;18.77;;;;;;;0.21;94.50;102742.13;5030209;28;20104;-79
2023/01/29 09:06:57;;;;;;;44.28;18.73;;;;;;;0.28;94.16;102748.38;5031602;28;20469;-79
2023/01/29 09:09:22;;;;;;;44.42;19.05;;;;;;;0.28;94.38;102749.28;5013669;28;20456;-79
2023/01/29 09:11:47;;;;;;;45.03;20.85;;;;;;;0.32;93.97;102744.81;5030690;28;20204;-79
2023/01/29 09:14:13;;;;;;;39.42;18.42;;;;;;;0.32;94.09;102740.34;5029985;28;20068;-79
2023/01/29 09:16:39;;;;;;;40.72;19.05;;;;;;;0.38;94.41;102743.03;5030054;28;20044;-79
2023/01/29 09:19:04;;;;;;;43.25;19.50;;;;;;;0.39;93.44;102735.91;5013606;28;20044;-78
2023/01/29 09:21:29;;;;;;;42.67;18.60;;;;;;;0.43;93.33;102735.00;5031248;28;20047;-78
2023/01/29 09:23:55;;;;;;;40.65;18.73;;;;;;;0.45;93.07;102730.53;5031102;28;20080;-77
2023/01/29 09:26:20;;;;;;;39.47;20.00;;;;;;;0.48;93.31;102728.75;5042238;28;20072;-77
2023/01/29 09:28:46;;;;;;;36.53;18.05;;;;;;;0.48;93.20;102726.09;5035722;28;20091;-77
2023/01/29 09:31:11;;;;;;;35.58;17.40;;;;;;;0.50;93.23;102721.59;5012941;28;20037;-76
2023/01/29 09:33:36;;;;;;;39.10;18.65;;;;;;;0.54;92.67;102726.97;5030730;28;20481;-77
2023/01/29 09:36:03;;;;;;;38.00;17.90;;;;;;;0.55;92.68;102724.28;5029817;28;20441;-76
2023/01/29 09:38:29;;;;;;;37.60;16.80;;;;;;;0.60;92.49;102730.53;5046517;28;20044;-75
2023/01/29 09:41:19;;;;;;;42.80;19.88;;;;;;;0.63;92.15;102737.66;5050542;28;20027;-75
2023/01/29 09:43:50;;;;;;;38.80;16.73;;;;;;;0.64;92.47;102726.94;5035648;28;20037;-75
2023/01/29 09:46:39;;;;;;;38.75;18.17;;;;;;;0.69;92.85;102726.94;5045195;28;20370;-76
2023/01/29 09:49:27;;;;;;;34.20;18.40;;;;;;;0.72;92.46;102719.81;5050325;28;20052;-75
2023/01/29 09:51:58;;;;;;;40.08;17.33;;;;;;;0.77;91.95;102733.19;5032704;28;20076;-75
2023/01/29 09:54:29;;;;;;;40.58;16.50;;;;;;;0.77;91.47;102731.41;5030673;28;20512;-75
2023/01/29 09:56:56;;;;;;;33.15;16.58;;;;;;;0.82;91.62;102727.81;5043407;28;20036;-74
2023/01/29 09:59:28;;;;;;;35.92;16.05;;;;;;;0.83;91.66;102719.78;5029577;28;20025;-75
2023/01/29 10:02:33;;;;;;;38.88;17.60;;;;;;;0.86;91.44;102722.47;5028944;28;20033;-75
2023/01/29 10:05:43;;;;;;;35.97;16.60;;;;;;;0.93;90.87;102720.66;5028345;28;20513;-74
2023/01/29 10:08:45;;;;;;;33.10;15.93;;;;;;;0.96;90.72;102737.63;5026361;28;20136;-74
2023/01/29 10:11:19;;;;;;;35.30;16.92;;;;;;;0.97;90.48;102728.69;5028499;28;20037;-74
2023/01/29 10:14:01;;;;;;;33.72;16.25;;;;;;;1.03;90.11;102727.78;5030387;28;20120;-74
2023/01/29 10:16:29;;;;;;;37.95;16.85;;;;;;;1.08;90.54;102730.47;5029995;28;20037;-74
2023/01/29 10:19:00;;;;;;;31.17;15.80;;;;;;;1.12;90.08;102726.84;5029735;28;20032;-74
2023/01/29 10:21:40;;;;;;;38.83;16.92;;;;;;;1.16;90.52;102726.84;5028571;28;20112;-74
2023/01/29 10:24:36;;;;;;;39.47;16.98;;;;;;;1.19;89.99;102731.31;5028006;28;20748;-73
2023/01/29 10:27:11;;;;;;;31.60;16.40;;;;;;;1.24;89.18;102724.13;5026790;28;20029;-76
2023/01/29 10:29:40;;;;;;;32.58;15.88;;;;;;;1.27;89.34;102726.81;5031800;28;20041;-73
2023/01/29 10:32:14;;;;;;;35.42;16.15;;;;;;;1.31;89.94;102725.03;5049289;28;20090;-73
2023/01/29 10:34:48;;;;;;;37.95;16.52;;;;;;;1.34;87.84;102725.00;5036969;28;20025;-73
2023/01/29 10:37:18;;;;;;;36.08;17.08;;;;;;;1.35;88.26;102722.28;5030005;28;20110;-73
2023/01/29 10:39:44;;;;;;;30.70;15.23;;;;;;;1.37;88.15;102722.31;5028562;28;20067;-73
2023/01/29 10:42:16;;;;;;;29.85;15.38;;;;;;;1.40;87.98;102719.59;5028733;28;20414;-73
2023/01/29 10:44:59;;;;;;;34.95;15.60;;;;;;;1.43;88.53;102715.13;5029451;28;20033;-74
2023/01/29 10:47:54;;;;;;;30.38;15.38;;;;;;;1.47;88.41;102714.22;5029550;28;20045;-72
2023/01/29 10:50:46;;;;;;;34.15;16.30;;;;;;;1.52;88.42;102716.88;5028460;28;20077;-74
2023/01/29 10:53:35;;;;;;;30.73;14.63;;;;;;;1.53;87.25;102715.97;5029490;28;20116;-73
2023/01/29 10:56:25;;;;;;;30.30;14.52;;;;;;;1.53;87.28;102714.16;5027988;28;20038;-72
2023/01/29 10:58:55;;;;;;;32.38;15.00;;;;;;;1.54;87.36;102709.72;5028866;28;20076;-72
2023/01/29 11:01:21;;;;;;;33.10;15.77;;;;;;;1.57;86.67;102700.75;5045542;28;20170;-72
2023/01/29 11:03:55;;;;;;;33.85;16.08;;;;;;;1.61;87.67;102689.13;5048462;28;20107;-73
2023/01/29 11:06:27;;;;;;;29.75;14.07;;;;;;;1.65;88.25;102686.41;5047807;28;20041;-71
2023/01/29 11:09:01;;;;;;;30.55;14.57;;;;;;;1.72;87.94;102679.19;5043905;28;20029;-72
2023/01/29 11:11:50;;;;;;;29.77;15.90;;;;;;;1.77;87.01;102670.25;5027880;28;20038;-72
2023/01/29 11:14:29;;;;;;;28.20;14.00;;;;;;;1.79;87.00;102660.38;5029181;28;20083;-73
2023/01/29 11:16:55;;;;;;;25.48;13.90;;;;;;;1.85;85.97;102671.97;5027853;28;20041;-72
2023/01/29 11:19:39;;;;;;;35.25;14.43;;;;;;;1.92;86.62;102654.94;5037983;28;20495;-74
2023/01/29 11:22:13;;;;;;;29.08;14.18;;;;;;;1.96;86.23;102644.16;5047619;28;20039;-72
2023/01/29 11:24:38;;;;;;;31.88;15.38;;;;;;;2.02;86.38;102638.72;5033103;28;20068;-72
2023/01/29 11:27:28;;;;;;;29.05;14.20;;;;;;;2.05;85.41;102635.13;5028785;28;20116;-73
2023/01/29 11:29:54;;;;;;;31.42;15.30;;;;;;;2.05;85.35;102632.44;5028845;28;20033;-73
2023/01/29 11:32:20;;;;;;;33.67;16.10;;;;;;;2.07;85.25;102621.72;5028851;28;20022;-72
2023/01/29 11:34:55;;;;;;;30.75;15.18;;;;;;;2.11;85.22;102623.47;5029030;28;20030;-72
2023/01/29 11:37:21;;;;;;;26.13;14.07;;;;;;;2.15;85.04;102618.06;5029532;28;20064;-73
2023/01/29 11:39:46;;;;;;;29.75;14.10;;;;;;;2.17;84.41;102613.53;5036184;28;20067;-72
2023/01/29 11:42:21;;;;;;;29.27;15.02;;;;;;;2.21;84.38;102607.25;5049760;28;20132;-72
2023/01/29 11:44:47;;;;;;;27.80;14.30;;;;;;;2.24;83.85;102600.97;5031927;28;20523;-74
2023/01/29 11:47:39;;;;;;;28.50;13.82;;;;;;;2.30;84.33;102606.28;5033033;28;20037;-73
2023/01/29 11:50:04;;;;;;;25.88;13.90;;;;;;;2.35;84.74;102582.06;5028119;28;20057;-73
2023/01/29 11:52:36;;;;;;;30.95;14.55;;;;;;;2.41;83.83;102580.19;5032695;28;20025;-72
2023/01/29 11:55:22;;;;;;;26.23;14.40;;;;;;;2.48;85.18;102586.41;5031281;28;20038;-72